sensor_id;sensor_type;location;lat;lon;timestamp;P1;durP1;ratioP1;P2;durP2;ratioP2
63714;SDS011;49858;48.956;9.076;2022-08-21T00:00:27;3.72;;;2.22;;
63714;SDS011;49858;48.956;9.076;2022-08-21T00:02:56;3.90;;;2.30;;
63714;SDS011;49858;48.956;9.076;2022-08-21T00:05:25;4.60;;;2.00;;
63714;SDS011;49858;48.956;9.076;2022-08-21T00:07:54;4.65;;;2.40;;
63714;SDS011;49858;48.956;9.076;2022-08-21T00:10:23;3.90;;;2.13;;
63714;SDS011;49858;48.956;9.076;2022-08-21T00:12:52;3.70;;;1.98;;
63714;SDS011;49858;48.956;9.076;2022-08-21T00:15:22;2.42;;;1.70;;
63714;SDS011;49858;48.956;9.076;2022-08-21T00:17:54;3.58;;;2.40;;
63714;SDS011;49858;48.956;9.076;2022-08-21T00:20:23;4.70;;;2.10;;
63714;SDS011;49858;48.956;9.076;2022-08-21T00:22:51;3.47;;;2.20;;
63714;SDS011;49858;48.956;9.076;2022-08-21T00:25:21;4.30;;;2.08;;
63714;SDS011;49858;48.956;9.076;2022-08-21T00:27:51;3.70;;;2.10;;
63714;SDS011;49858;48.956;9.076;2022-08-21T00:30:20;3.42;;;2.17;;
63714;SDS011;49858;48.956;9.076;2022-08-21T00:32:49;3.00;;;1.90;;
63714;SDS011;49858;48.956;9.076;2022-08-21T00:35:20;5.78;;;2.38;;
63714;SDS011;49858;48.956;9.076;2022-08-21T00:37:49;6.22;;;2.20;;
63714;SDS011;49858;48.956;9.076;2022-08-21T00:40:22;4.47;;;2.20;;
63714;SDS011;49858;48.956;9.076;2022-08-21T00:42:53;5.00;;;2.25;;
63714;SDS011;49858;48.956;9.076;2022-08-21T00:45:22;2.65;;;1.90;;
63714;SDS011;49858;48.956;9.076;2022-08-21T00:47:51;4.55;;;2.20;;
63714;SDS011;49858;48.956;9.076;2022-08-21T00:50:22;3.83;;;2.17;;
63714;SDS011;49858;48.956;9.076;2022-08-21T00:52:52;6.55;;;2.60;;
63714;SDS011;49858;48.956;9.076;2022-08-21T00:55:20;6.80;;;2.42;;
63714;SDS011;49858;48.956;9.076;2022-08-21T00:57:52;5.53;;;2.47;;
63714;SDS011;49858;48.956;9.076;2022-08-21T01:00:25;3.40;;;2.15;;
63714;SDS011;49858;48.956;9.076;2022-08-21T01:02:55;6.22;;;2.00;;
63714;SDS011;49858;48.956;9.076;2022-08-21T01:05:24;5.50;;;2.42;;
63714;SDS011;49858;48.956;9.076;2022-08-21T01:07:53;5.40;;;2.50;;
63714;SDS011;49858;48.956;9.076;2022-08-21T01:10:23;3.75;;;2.00;;
63714;SDS011;49858;48.956;9.076;2022-08-21T01:12:52;4.57;;;2.47;;
63714;SDS011;49858;48.956;9.076;2022-08-21T01:15:24;5.13;;;2.33;;
63714;SDS011;49858;48.956;9.076;2022-08-21T01:17:56;4.22;;;2.67;;
63714;SDS011;49858;48.956;9.076;2022-08-21T01:20:24;5.13;;;3.00;;
63714;SDS011;49858;48.956;9.076;2022-08-21T01:22:59;5.78;;;2.60;;
63714;SDS011;49858;48.956;9.076;2022-08-21T01:25:27;6.50;;;2.78;;
63714;SDS011;49858;48.956;9.076;2022-08-21T01:27:55;6.50;;;2.35;;
63714;SDS011;49858;48.956;9.076;2022-08-21T01:30:27;4.35;;;2.30;;
63714;SDS011;49858;48.956;9.076;2022-08-21T01:32:56;4.35;;;2.90;;
63714;SDS011;49858;48.956;9.076;2022-08-21T01:35:24;6.00;;;3.08;;
63714;SDS011;49858;48.956;9.076;2022-08-21T01:37:52;5.28;;;2.90;;
63714;SDS011;49858;48.956;9.076;2022-08-21T01:40:21;9.23;;;2.92;;
63714;SDS011;49858;48.956;9.076;2022-08-21T01:42:49;6.05;;;2.67;;
63714;SDS011;49858;48.956;9.076;2022-08-21T01:45:17;5.72;;;2.60;;
63714;SDS011;49858;48.956;9.076;2022-08-21T01:47:46;5.03;;;2.80;;
63714;SDS011;49858;48.956;9.076;2022-08-21T01:50:15;6.05;;;3.22;;
63714;SDS011;49858;48.956;9.076;2022-08-21T01:52:46;9.27;;;2.97;;
63714;SDS011;49858;48.956;9.076;2022-08-21T01:55:17;9.52;;;3.20;;
63714;SDS011;49858;48.956;9.076;2022-08-21T01:57:47;6.82;;;2.95;;
63714;SDS011;49858;48.956;9.076;2022-08-21T02:00:16;4.68;;;2.90;;
63714;SDS011;49858;48.956;9.076;2022-08-21T02:02:49;5.95;;;2.80;;
63714;SDS011;49858;48.956;9.076;2022-08-21T02:05:17;5.45;;;2.90;;
63714;SDS011;49858;48.956;9.076;2022-08-21T02:07:47;4.43;;;2.95;;
63714;SDS011;49858;48.956;9.076;2022-08-21T02:10:19;5.75;;;3.95;;
63714;SDS011;49858;48.956;9.076;2022-08-21T02:12:51;4.65;;;3.00;;
63714;SDS011;49858;48.956;9.076;2022-08-21T02:15:19;6.97;;;3.20;;
63714;SDS011;49858;48.956;9.076;2022-08-21T02:17:51;5.60;;;3.15;;
63714;SDS011;49858;48.956;9.076;2022-08-21T02:20:22;7.53;;;3.30;;
63714;SDS011;49858;48.956;9.076;2022-08-21T02:22:52;4.35;;;3.10;;
63714;SDS011;49858;48.956;9.076;2022-08-21T02:25:21;6.05;;;3.58;;
63714;SDS011;49858;48.956;9.076;2022-08-21T02:27:53;6.53;;;3.58;;
63714;SDS011;49858;48.956;9.076;2022-08-21T02:30:22;5.10;;;3.13;;
63714;SDS011;49858;48.956;9.076;2022-08-21T02:32:52;11.48;;;3.72;;
63714;SDS011;49858;48.956;9.076;2022-08-21T02:35:20;6.72;;;2.92;;
63714;SDS011;49858;48.956;9.076;2022-08-21T02:37:51;5.22;;;3.20;;
63714;SDS011;49858;48.956;9.076;2022-08-21T02:40:21;5.95;;;2.83;;
63714;SDS011;49858;48.956;9.076;2022-08-21T02:42:54;6.00;;;3.30;;
63714;SDS011;49858;48.956;9.076;2022-08-21T02:45:22;7.35;;;3.28;;
63714;SDS011;49858;48.956;9.076;2022-08-21T02:47:51;5.70;;;3.30;;
63714;SDS011;49858;48.956;9.076;2022-08-21T02:50:25;7.38;;;3.78;;
63714;SDS011;49858;48.956;9.076;2022-08-21T02:52:55;8.43;;;3.00;;
63714;SDS011;49858;48.956;9.076;2022-08-21T02:55:24;5.50;;;3.38;;
63714;SDS011;49858;48.956;9.076;2022-08-21T02:57:55;5.03;;;3.65;;
63714;SDS011;49858;48.956;9.076;2022-08-21T03:00:25;7.90;;;3.85;;
63714;SDS011;49858;48.956;9.076;2022-08-21T03:02:54;5.85;;;3.58;;
63714;SDS011;49858;48.956;9.076;2022-08-21T03:05:23;6.40;;;4.00;;
63714;SDS011;49858;48.956;9.076;2022-08-21T03:07:52;8.18;;;3.80;;
63714;SDS011;49858;48.956;9.076;2022-08-21T03:10:21;6.35;;;3.70;;
63714;SDS011;49858;48.956;9.076;2022-08-21T03:12:49;6.95;;;3.45;;
63714;SDS011;49858;48.956;9.076;2022-08-21T03:15:20;8.45;;;3.90;;
63714;SDS011;49858;48.956;9.076;2022-08-21T03:17:50;4.90;;;3.30;;
63714;SDS011;49858;48.956;9.076;2022-08-21T03:20:20;5.78;;;3.80;;
63714;SDS011;49858;48.956;9.076;2022-08-21T03:22:49;8.60;;;4.05;;
63714;SDS011;49858;48.956;9.076;2022-08-21T03:25:18;11.02;;;3.88;;
63714;SDS011;49858;48.956;9.076;2022-08-21T03:28:06;6.35;;;4.07;;
63714;SDS011;49858;48.956;9.076;2022-08-21T03:30:40;6.28;;;3.40;;
63714;SDS011;49858;48.956;9.076;2022-08-21T03:33:08;5.28;;;3.55;;
63714;SDS011;49858;48.956;9.076;2022-08-21T03:35:41;8.05;;;4.00;;
63714;SDS011;49858;48.956;9.076;2022-08-21T03:38:10;5.88;;;3.58;;
63714;SDS011;49858;48.956;9.076;2022-08-21T03:40:40;10.32;;;4.32;;
63714;SDS011;49858;48.956;9.076;2022-08-21T03:43:08;6.78;;;3.78;;
63714;SDS011;49858;48.956;9.076;2022-08-21T03:45:36;6.07;;;3.90;;
63714;SDS011;49858;48.956;9.076;2022-08-21T03:48:07;9.60;;;3.78;;
63714;SDS011;49858;48.956;9.076;2022-08-21T03:50:37;9.60;;;3.50;;
63714;SDS011;49858;48.956;9.076;2022-08-21T03:53:07;6.80;;;3.45;;
63714;SDS011;49858;48.956;9.076;2022-08-21T03:55:43;7.35;;;3.80;;
63714;SDS011;49858;48.956;9.076;2022-08-21T03:58:12;5.78;;;3.78;;
63714;SDS011;49858;48.956;9.076;2022-08-21T04:00:42;9.63;;;3.72;;
63714;SDS011;49858;48.956;9.076;2022-08-21T04:03:12;6.68;;;3.92;;
63714;SDS011;49858;48.956;9.076;2022-08-21T04:05:40;5.32;;;3.70;;
63714;SDS011;49858;48.956;9.076;2022-08-21T04:08:08;8.23;;;4.28;;
63714;SDS011;49858;48.956;9.076;2022-08-21T04:10:37;6.90;;;3.85;;
63714;SDS011;49858;48.956;9.076;2022-08-21T04:13:06;6.57;;;3.95;;
63714;SDS011;49858;48.956;9.076;2022-08-21T04:15:35;7.28;;;4.10;;
63714;SDS011;49858;48.956;9.076;2022-08-21T04:18:03;8.75;;;4.43;;
63714;SDS011;49858;48.956;9.076;2022-08-21T04:20:33;5.78;;;3.95;;
63714;SDS011;49858;48.956;9.076;2022-08-21T04:23:01;5.72;;;4.05;;
63714;SDS011;49858;48.956;9.076;2022-08-21T04:25:30;7.00;;;4.20;;
63714;SDS011;49858;48.956;9.076;2022-08-21T04:27:59;7.47;;;4.00;;
63714;SDS011;49858;48.956;9.076;2022-08-21T04:30:28;6.38;;;3.92;;
63714;SDS011;49858;48.956;9.076;2022-08-21T04:32:56;9.77;;;4.20;;
63714;SDS011;49858;48.956;9.076;2022-08-21T04:35:26;7.57;;;3.88;;
63714;SDS011;49858;48.956;9.076;2022-08-21T04:37:58;6.60;;;3.88;;
63714;SDS011;49858;48.956;9.076;2022-08-21T04:40:26;4.82;;;3.33;;
63714;SDS011;49858;48.956;9.076;2022-08-21T04:42:55;6.75;;;3.63;;
63714;SDS011;49858;48.956;9.076;2022-08-21T04:45:29;5.72;;;3.80;;
63714;SDS011;49858;48.956;9.076;2022-08-21T04:47:59;6.05;;;4.03;;
63714;SDS011;49858;48.956;9.076;2022-08-21T04:50:29;6.63;;;4.60;;
63714;SDS011;49858;48.956;9.076;2022-08-21T04:53:04;7.43;;;4.05;;
63714;SDS011;49858;48.956;9.076;2022-08-21T04:55:33;7.13;;;4.13;;
63714;SDS011;49858;48.956;9.076;2022-08-21T04:58:01;7.13;;;4.00;;
63714;SDS011;49858;48.956;9.076;2022-08-21T05:00:29;6.88;;;3.97;;
63714;SDS011;49858;48.956;9.076;2022-08-21T05:02:57;9.38;;;4.68;;
63714;SDS011;49858;48.956;9.076;2022-08-21T05:05:27;7.80;;;4.50;;
63714;SDS011;49858;48.956;9.076;2022-08-21T05:07:56;10.30;;;4.25;;
63714;SDS011;49858;48.956;9.076;2022-08-21T05:10:28;5.35;;;3.67;;
63714;SDS011;49858;48.956;9.076;2022-08-21T05:12:57;7.68;;;3.92;;
63714;SDS011;49858;48.956;9.076;2022-08-21T05:15:27;7.68;;;4.03;;
63714;SDS011;49858;48.956;9.076;2022-08-21T05:17:56;5.65;;;3.45;;
63714;SDS011;49858;48.956;9.076;2022-08-21T05:20:27;5.13;;;3.97;;
63714;SDS011;49858;48.956;9.076;2022-08-21T05:22:55;8.00;;;4.65;;
63714;SDS011;49858;48.956;9.076;2022-08-21T05:25:24;6.32;;;4.28;;
63714;SDS011;49858;48.956;9.076;2022-08-21T05:27:55;9.68;;;4.35;;
63714;SDS011;49858;48.956;9.076;2022-08-21T05:30:26;6.78;;;3.90;;
63714;SDS011;49858;48.956;9.076;2022-08-21T05:32:55;6.50;;;4.13;;
63714;SDS011;49858;48.956;9.076;2022-08-21T05:35:25;7.85;;;4.35;;
63714;SDS011;49858;48.956;9.076;2022-08-21T05:37:54;5.05;;;4.07;;
63714;SDS011;49858;48.956;9.076;2022-08-21T05:40:22;6.57;;;4.03;;
63714;SDS011;49858;48.956;9.076;2022-08-21T05:45:28;6.53;;;4.47;;
63714;SDS011;49858;48.956;9.076;2022-08-21T05:48:09;9.02;;;5.07;;
63714;SDS011;49858;48.956;9.076;2022-08-21T05:50:39;7.35;;;4.97;;
63714;SDS011;49858;48.956;9.076;2022-08-21T05:53:07;8.00;;;4.70;;
63714;SDS011;49858;48.956;9.076;2022-08-21T05:55:37;7.35;;;4.38;;
63714;SDS011;49858;48.956;9.076;2022-08-21T05:58:12;8.63;;;4.80;;
63714;SDS011;49858;48.956;9.076;2022-08-21T06:00:42;7.32;;;3.97;;
63714;SDS011;49858;48.956;9.076;2022-08-21T06:03:12;6.97;;;4.25;;
63714;SDS011;49858;48.956;9.076;2022-08-21T06:05:43;6.85;;;4.03;;
63714;SDS011;49858;48.956;9.076;2022-08-21T06:08:11;6.35;;;4.72;;
63714;SDS011;49858;48.956;9.076;2022-08-21T06:10:40;5.88;;;4.18;;
63714;SDS011;49858;48.956;9.076;2022-08-21T06:13:09;7.68;;;4.90;;
63714;SDS011;49858;48.956;9.076;2022-08-21T06:15:39;6.65;;;4.45;;
63714;SDS011;49858;48.956;9.076;2022-08-21T06:18:07;6.28;;;4.28;;
63714;SDS011;49858;48.956;9.076;2022-08-21T06:20:35;8.45;;;4.07;;
63714;SDS011;49858;48.956;9.076;2022-08-21T06:23:03;6.57;;;4.30;;
63714;SDS011;49858;48.956;9.076;2022-08-21T06:25:31;9.60;;;3.65;;
63714;SDS011;49858;48.956;9.076;2022-08-21T06:28:00;6.85;;;3.90;;
63714;SDS011;49858;48.956;9.076;2022-08-21T06:30:30;5.60;;;4.47;;
63714;SDS011;49858;48.956;9.076;2022-08-21T06:33:00;7.47;;;3.78;;
63714;SDS011;49858;48.956;9.076;2022-08-21T06:35:28;7.30;;;3.92;;
63714;SDS011;49858;48.956;9.076;2022-08-21T06:37:56;9.18;;;3.90;;
63714;SDS011;49858;48.956;9.076;2022-08-21T06:40:25;8.55;;;3.92;;
63714;SDS011;49858;48.956;9.076;2022-08-21T06:43:04;6.13;;;3.40;;
63714;SDS011;49858;48.956;9.076;2022-08-21T06:45:34;7.85;;;3.75;;
63714;SDS011;49858;48.956;9.076;2022-08-21T06:48:04;7.47;;;3.30;;
63714;SDS011;49858;48.956;9.076;2022-08-21T06:50:33;8.30;;;3.97;;
63714;SDS011;49858;48.956;9.076;2022-08-21T06:53:03;13.05;;;3.65;;
63714;SDS011;49858;48.956;9.076;2022-08-21T06:55:32;8.43;;;3.72;;
63714;SDS011;49858;48.956;9.076;2022-08-21T06:58:00;5.03;;;3.17;;
63714;SDS011;49858;48.956;9.076;2022-08-21T07:00:29;6.72;;;3.50;;
63714;SDS011;49858;48.956;9.076;2022-08-21T07:02:57;6.63;;;3.30;;
63714;SDS011;49858;48.956;9.076;2022-08-21T07:05:28;5.75;;;2.90;;
63714;SDS011;49858;48.956;9.076;2022-08-21T07:07:57;6.38;;;3.03;;
63714;SDS011;49858;48.956;9.076;2022-08-21T07:10:25;4.82;;;2.85;;
63714;SDS011;49858;48.956;9.076;2022-08-21T07:12:54;5.07;;;2.90;;
63714;SDS011;49858;48.956;9.076;2022-08-21T07:15:27;5.47;;;2.50;;
63714;SDS011;49858;48.956;9.076;2022-08-21T07:17:57;5.97;;;3.50;;
63714;SDS011;49858;48.956;9.076;2022-08-21T07:20:26;6.03;;;3.08;;
63714;SDS011;49858;48.956;9.076;2022-08-21T07:22:56;5.93;;;2.70;;
63714;SDS011;49858;48.956;9.076;2022-08-21T07:25:26;5.90;;;2.90;;
63714;SDS011;49858;48.956;9.076;2022-08-21T07:27:54;7.40;;;3.08;;
63714;SDS011;49858;48.956;9.076;2022-08-21T07:30:22;5.65;;;2.92;;
63714;SDS011;49858;48.956;9.076;2022-08-21T07:32:51;6.60;;;2.90;;
63714;SDS011;49858;48.956;9.076;2022-08-21T07:35:20;7.10;;;2.90;;
63714;SDS011;49858;48.956;9.076;2022-08-21T07:37:50;6.22;;;2.90;;
63714;SDS011;49858;48.956;9.076;2022-08-21T07:40:18;9.18;;;3.00;;
63714;SDS011;49858;48.956;9.076;2022-08-21T07:42:47;5.75;;;3.00;;
63714;SDS011;49858;48.956;9.076;2022-08-21T07:45:21;6.05;;;3.33;;
63714;SDS011;49858;48.956;9.076;2022-08-21T07:47:50;6.00;;;2.92;;
63714;SDS011;49858;48.956;9.076;2022-08-21T07:50:23;4.25;;;2.85;;
63714;SDS011;49858;48.956;9.076;2022-08-21T07:52:52;7.95;;;2.85;;
63714;SDS011;49858;48.956;9.076;2022-08-21T07:55:20;4.07;;;2.38;;
63714;SDS011;49858;48.956;9.076;2022-08-21T07:57:49;5.20;;;2.58;;
63714;SDS011;49858;48.956;9.076;2022-08-21T08:00:18;4.55;;;2.60;;
63714;SDS011;49858;48.956;9.076;2022-08-21T08:02:48;5.63;;;2.70;;
63714;SDS011;49858;48.956;9.076;2022-08-21T08:05:19;5.70;;;2.95;;
63714;SDS011;49858;48.956;9.076;2022-08-21T08:07:49;8.00;;;2.80;;
63714;SDS011;49858;48.956;9.076;2022-08-21T08:10:18;5.57;;;3.50;;
63714;SDS011;49858;48.956;9.076;2022-08-21T08:12:47;4.88;;;2.72;;
63714;SDS011;49858;48.956;9.076;2022-08-21T08:17:50;6.72;;;3.40;;
63714;SDS011;49858;48.956;9.076;2022-08-21T08:20:19;11.90;;;4.47;;
63714;SDS011;49858;48.956;9.076;2022-08-21T08:22:49;8.32;;;4.63;;
63714;SDS011;49858;48.956;9.076;2022-08-21T08:25:18;9.65;;;3.35;;
63714;SDS011;49858;48.956;9.076;2022-08-21T08:27:48;6.40;;;3.30;;
63714;SDS011;49858;48.956;9.076;2022-08-21T08:30:17;4.53;;;3.47;;
63714;SDS011;49858;48.956;9.076;2022-08-21T08:32:46;6.57;;;3.20;;
63714;SDS011;49858;48.956;9.076;2022-08-21T08:35:16;10.35;;;3.50;;
63714;SDS011;49858;48.956;9.076;2022-08-21T08:40:20;9.32;;;3.13;;
63714;SDS011;49858;48.956;9.076;2022-08-21T08:42:59;7.32;;;3.15;;
63714;SDS011;49858;48.956;9.076;2022-08-21T08:45:27;6.47;;;3.17;;
63714;SDS011;49858;48.956;9.076;2022-08-21T08:47:58;5.57;;;3.35;;
63714;SDS011;49858;48.956;9.076;2022-08-21T08:50:33;7.40;;;3.97;;
63714;SDS011;49858;48.956;9.076;2022-08-21T08:53:08;5.05;;;3.38;;
63714;SDS011;49858;48.956;9.076;2022-08-21T08:55:42;7.45;;;3.50;;
63714;SDS011;49858;48.956;9.076;2022-08-21T08:58:14;7.10;;;3.17;;
63714;SDS011;49858;48.956;9.076;2022-08-21T09:00:47;6.35;;;3.20;;
63714;SDS011;49858;48.956;9.076;2022-08-21T09:03:17;7.28;;;3.53;;
63714;SDS011;49858;48.956;9.076;2022-08-21T09:05:46;5.82;;;3.40;;
63714;SDS011;49858;48.956;9.076;2022-08-21T09:08:22;6.63;;;3.25;;
63714;SDS011;49858;48.956;9.076;2022-08-21T09:11:02;5.45;;;2.58;;
63714;SDS011;49858;48.956;9.076;2022-08-21T09:13:38;4.28;;;2.83;;
63714;SDS011;49858;48.956;9.076;2022-08-21T09:16:18;6.68;;;2.80;;
63714;SDS011;49858;48.956;9.076;2022-08-21T09:18:54;5.65;;;2.80;;
63714;SDS011;49858;48.956;9.076;2022-08-21T09:21:34;5.75;;;2.88;;
63714;SDS011;49858;48.956;9.076;2022-08-21T09:24:16;6.95;;;2.33;;
63714;SDS011;49858;48.956;9.076;2022-08-21T09:27:02;6.03;;;2.58;;
63714;SDS011;49858;48.956;9.076;2022-08-21T09:29:35;6.10;;;2.53;;
63714;SDS011;49858;48.956;9.076;2022-08-21T09:32:09;6.83;;;2.60;;
63714;SDS011;49858;48.956;9.076;2022-08-21T09:34:54;5.78;;;2.65;;
63714;SDS011;49858;48.956;9.076;2022-08-21T09:37:24;5.45;;;2.38;;
63714;SDS011;49858;48.956;9.076;2022-08-21T09:39:52;4.55;;;2.53;;
63714;SDS011;49858;48.956;9.076;2022-08-21T09:42:23;5.93;;;2.40;;
63714;SDS011;49858;48.956;9.076;2022-08-21T09:45:05;4.63;;;2.65;;
63714;SDS011;49858;48.956;9.076;2022-08-21T09:47:36;5.03;;;2.35;;
63714;SDS011;49858;48.956;9.076;2022-08-21T09:50:08;5.25;;;2.70;;
63714;SDS011;49858;48.956;9.076;2022-08-21T09:52:42;6.15;;;2.28;;
63714;SDS011;49858;48.956;9.076;2022-08-21T09:55:18;6.68;;;2.55;;
63714;SDS011;49858;48.956;9.076;2022-08-21T09:58:10;7.45;;;2.50;;
63714;SDS011;49858;48.956;9.076;2022-08-21T10:00:38;5.30;;;2.42;;
63714;SDS011;49858;48.956;9.076;2022-08-21T10:03:11;4.22;;;2.40;;
63714;SDS011;49858;48.956;9.076;2022-08-21T10:05:51;4.03;;;2.40;;
63714;SDS011;49858;48.956;9.076;2022-08-21T10:08:22;4.75;;;2.42;;
63714;SDS011;49858;48.956;9.076;2022-08-21T10:10:55;5.57;;;2.58;;
63714;SDS011;49858;48.956;9.076;2022-08-21T10:13:32;4.50;;;2.20;;
63714;SDS011;49858;48.956;9.076;2022-08-21T10:16:14;7.85;;;2.25;;
63714;SDS011;49858;48.956;9.076;2022-08-21T10:18:54;4.03;;;2.30;;
63714;SDS011;49858;48.956;9.076;2022-08-21T10:21:30;5.55;;;2.65;;
63714;SDS011;49858;48.956;9.076;2022-08-21T10:24:06;6.60;;;2.80;;
63714;SDS011;49858;48.956;9.076;2022-08-21T10:26:59;4.88;;;2.80;;
63714;SDS011;49858;48.956;9.076;2022-08-21T10:29:42;6.38;;;2.60;;
63714;SDS011;49858;48.956;9.076;2022-08-21T10:32:20;9.15;;;2.80;;
63714;SDS011;49858;48.956;9.076;2022-08-21T10:35:07;6.32;;;3.22;;
63714;SDS011;49858;48.956;9.076;2022-08-21T10:37:46;7.35;;;2.70;;
63714;SDS011;49858;48.956;9.076;2022-08-21T10:40:24;4.63;;;2.50;;
63714;SDS011;49858;48.956;9.076;2022-08-21T10:43:01;6.60;;;2.55;;
63714;SDS011;49858;48.956;9.076;2022-08-21T10:45:38;5.07;;;2.42;;
63714;SDS011;49858;48.956;9.076;2022-08-21T10:48:19;4.22;;;2.35;;
63714;SDS011;49858;48.956;9.076;2022-08-21T10:50:52;9.52;;;2.55;;
63714;SDS011;49858;48.956;9.076;2022-08-21T10:53:30;6.72;;;2.38;;
63714;SDS011;49858;48.956;9.076;2022-08-21T10:56:16;5.10;;;2.47;;
63714;SDS011;49858;48.956;9.076;2022-08-21T10:58:46;7.55;;;3.60;;
63714;SDS011;49858;48.956;9.076;2022-08-21T11:01:27;7.78;;;3.17;;
63714;SDS011;49858;48.956;9.076;2022-08-21T11:04:04;5.65;;;3.00;;
63714;SDS011;49858;48.956;9.076;2022-08-21T11:06:39;5.47;;;2.80;;
63714;SDS011;49858;48.956;9.076;2022-08-21T11:09:12;7.75;;;2.38;;
63714;SDS011;49858;48.956;9.076;2022-08-21T11:11:45;4.88;;;2.50;;
63714;SDS011;49858;48.956;9.076;2022-08-21T11:14:38;5.57;;;2.60;;
63714;SDS011;49858;48.956;9.076;2022-08-21T11:17:18;5.10;;;3.00;;
63714;SDS011;49858;48.956;9.076;2022-08-21T11:19:52;8.82;;;3.00;;
63714;SDS011;49858;48.956;9.076;2022-08-21T11:22:28;6.40;;;2.80;;
63714;SDS011;49858;48.956;9.076;2022-08-21T11:25:03;4.60;;;2.67;;
63714;SDS011;49858;48.956;9.076;2022-08-21T11:27:36;4.93;;;2.17;;
63714;SDS011;49858;48.956;9.076;2022-08-21T11:30:09;5.03;;;2.08;;
63714;SDS011;49858;48.956;9.076;2022-08-21T11:32:46;4.57;;;2.75;;
63714;SDS011;49858;48.956;9.076;2022-08-21T11:35:27;5.95;;;2.35;;
63714;SDS011;49858;48.956;9.076;2022-08-21T11:38:04;4.72;;;2.15;;
63714;SDS011;49858;48.956;9.076;2022-08-21T11:40:46;3.13;;;1.77;;
63714;SDS011;49858;48.956;9.076;2022-08-21T11:43:30;6.57;;;2.60;;
63714;SDS011;49858;48.956;9.076;2022-08-21T11:46:08;6.68;;;2.40;;
63714;SDS011;49858;48.956;9.076;2022-08-21T11:48:48;5.22;;;2.35;;
63714;SDS011;49858;48.956;9.076;2022-08-21T11:51:29;5.63;;;2.28;;
63714;SDS011;49858;48.956;9.076;2022-08-21T11:54:03;4.15;;;2.15;;
63714;SDS011;49858;48.956;9.076;2022-08-21T11:56:40;5.93;;;2.47;;
63714;SDS011;49858;48.956;9.076;2022-08-21T11:59:14;3.22;;;2.40;;
63714;SDS011;49858;48.956;9.076;2022-08-21T12:01:48;5.45;;;2.17;;
63714;SDS011;49858;48.956;9.076;2022-08-21T12:04:23;3.05;;;2.00;;
63714;SDS011;49858;48.956;9.076;2022-08-21T12:06:55;6.18;;;2.60;;
63714;SDS011;49858;48.956;9.076;2022-08-21T12:09:31;3.17;;;1.88;;
63714;SDS011;49858;48.956;9.076;2022-08-21T12:12:04;4.82;;;2.50;;
63714;SDS011;49858;48.956;9.076;2022-08-21T12:14:38;5.28;;;2.50;;
63714;SDS011;49858;48.956;9.076;2022-08-21T12:17:15;3.92;;;1.98;;
63714;SDS011;49858;48.956;9.076;2022-08-21T12:19:58;5.03;;;2.42;;
63714;SDS011;49858;48.956;9.076;2022-08-21T12:22:35;7.05;;;2.30;;
63714;SDS011;49858;48.956;9.076;2022-08-21T12:25:08;4.53;;;2.30;;
63714;SDS011;49858;48.956;9.076;2022-08-21T12:27:47;4.53;;;2.28;;
63714;SDS011;49858;48.956;9.076;2022-08-21T12:30:20;5.78;;;2.35;;
63714;SDS011;49858;48.956;9.076;2022-08-21T12:33:01;5.27;;;2.10;;
63714;SDS011;49858;48.956;9.076;2022-08-21T12:35:33;6.47;;;2.30;;
63714;SDS011;49858;48.956;9.076;2022-08-21T12:38:06;3.75;;;2.30;;
63714;SDS011;49858;48.956;9.076;2022-08-21T12:40:43;3.83;;;2.25;;
63714;SDS011;49858;48.956;9.076;2022-08-21T12:43:15;3.70;;;2.38;;
63714;SDS011;49858;48.956;9.076;2022-08-21T12:45:48;4.63;;;2.40;;
63714;SDS011;49858;48.956;9.076;2022-08-21T12:48:20;6.15;;;2.60;;
63714;SDS011;49858;48.956;9.076;2022-08-21T12:50:53;4.30;;;2.50;;
63714;SDS011;49858;48.956;9.076;2022-08-21T12:53:25;5.20;;;2.40;;
63714;SDS011;49858;48.956;9.076;2022-08-21T12:55:56;6.70;;;2.10;;
63714;SDS011;49858;48.956;9.076;2022-08-21T12:58:28;3.75;;;2.17;;
63714;SDS011;49858;48.956;9.076;2022-08-21T13:00:57;3.95;;;2.30;;
63714;SDS011;49858;48.956;9.076;2022-08-21T13:03:28;3.93;;;2.10;;
63714;SDS011;49858;48.956;9.076;2022-08-21T13:05:59;4.13;;;2.33;;
63714;SDS011;49858;48.956;9.076;2022-08-21T13:08:27;4.60;;;2.15;;
63714;SDS011;49858;48.956;9.076;2022-08-21T13:10:57;6.25;;;2.30;;
63714;SDS011;49858;48.956;9.076;2022-08-21T13:13:39;4.35;;;2.10;;
63714;SDS011;49858;48.956;9.076;2022-08-21T13:16:18;3.70;;;2.03;;
63714;SDS011;49858;48.956;9.076;2022-08-21T13:18:52;3.38;;;2.40;;
63714;SDS011;49858;48.956;9.076;2022-08-21T13:21:28;4.57;;;2.20;;
63714;SDS011;49858;48.956;9.076;2022-08-21T13:24:09;5.40;;;2.38;;
63714;SDS011;49858;48.956;9.076;2022-08-21T13:27:00;4.30;;;2.35;;
63714;SDS011;49858;48.956;9.076;2022-08-21T13:29:29;6.82;;;2.25;;
63714;SDS011;49858;48.956;9.076;2022-08-21T13:32:04;5.03;;;2.40;;
63714;SDS011;49858;48.956;9.076;2022-08-21T13:34:34;3.88;;;2.40;;
63714;SDS011;49858;48.956;9.076;2022-08-21T13:37:06;5.05;;;2.53;;
63714;SDS011;49858;48.956;9.076;2022-08-21T13:39:35;4.07;;;2.22;;
63714;SDS011;49858;48.956;9.076;2022-08-21T13:42:08;4.20;;;2.40;;
63714;SDS011;49858;48.956;9.076;2022-08-21T13:44:39;8.75;;;2.40;;
63714;SDS011;49858;48.956;9.076;2022-08-21T13:47:09;4.35;;;2.38;;
63714;SDS011;49858;48.956;9.076;2022-08-21T13:49:42;4.28;;;2.35;;
63714;SDS011;49858;48.956;9.076;2022-08-21T13:52:15;4.63;;;2.40;;
63714;SDS011;49858;48.956;9.076;2022-08-21T13:54:52;4.25;;;2.17;;
63714;SDS011;49858;48.956;9.076;2022-08-21T13:57:24;3.92;;;2.10;;
63714;SDS011;49858;48.956;9.076;2022-08-21T14:00:09;4.80;;;2.40;;
63714;SDS011;49858;48.956;9.076;2022-08-21T14:02:39;3.83;;;2.28;;
63714;SDS011;49858;48.956;9.076;2022-08-21T14:05:14;5.53;;;2.13;;
63714;SDS011;49858;48.956;9.076;2022-08-21T14:07:45;6.28;;;2.65;;
63714;SDS011;49858;48.956;9.076;2022-08-21T14:10:14;3.95;;;2.40;;
63714;SDS011;49858;48.956;9.076;2022-08-21T14:12:46;4.40;;;2.63;;
63714;SDS011;49858;48.956;9.076;2022-08-21T14:15:18;5.95;;;2.75;;
63714;SDS011;49858;48.956;9.076;2022-08-21T14:17:51;4.15;;;2.38;;
63714;SDS011;49858;48.956;9.076;2022-08-21T14:20:27;5.28;;;2.60;;
63714;SDS011;49858;48.956;9.076;2022-08-21T14:22:59;4.10;;;2.58;;
63714;SDS011;49858;48.956;9.076;2022-08-21T14:25:28;3.70;;;2.10;;
63714;SDS011;49858;48.956;9.076;2022-08-21T14:28:02;4.47;;;2.55;;
63714;SDS011;49858;48.956;9.076;2022-08-21T14:30:44;3.85;;;2.25;;
63714;SDS011;49858;48.956;9.076;2022-08-21T14:33:23;6.45;;;2.38;;
63714;SDS011;49858;48.956;9.076;2022-08-21T14:35:54;4.40;;;2.65;;
63714;SDS011;49858;48.956;9.076;2022-08-21T14:38:25;6.38;;;2.55;;
63714;SDS011;49858;48.956;9.076;2022-08-21T14:40:54;7.93;;;2.65;;
63714;SDS011;49858;48.956;9.076;2022-08-21T14:43:24;3.20;;;2.10;;
63714;SDS011;49858;48.956;9.076;2022-08-21T14:45:54;5.30;;;2.20;;
63714;SDS011;49858;48.956;9.076;2022-08-21T14:48:22;3.80;;;2.50;;
63714;SDS011;49858;48.956;9.076;2022-08-21T14:50:50;3.78;;;2.33;;
63714;SDS011;49858;48.956;9.076;2022-08-21T14:53:26;5.05;;;2.20;;
63714;SDS011;49858;48.956;9.076;2022-08-21T14:55:54;4.88;;;2.40;;
63714;SDS011;49858;48.956;9.076;2022-08-21T14:58:35;5.50;;;1.98;;
63714;SDS011;49858;48.956;9.076;2022-08-21T15:01:04;4.03;;;2.20;;
63714;SDS011;49858;48.956;9.076;2022-08-21T15:03:33;3.88;;;2.20;;
63714;SDS011;49858;48.956;9.076;2022-08-21T15:06:02;6.00;;;2.75;;
63714;SDS011;49858;48.956;9.076;2022-08-21T15:08:32;3.22;;;2.30;;
63714;SDS011;49858;48.956;9.076;2022-08-21T15:11:00;5.95;;;2.30;;
63714;SDS011;49858;48.956;9.076;2022-08-21T15:13:42;4.10;;;2.08;;
63714;SDS011;49858;48.956;9.076;2022-08-21T15:16:11;5.85;;;2.35;;
63714;SDS011;49858;48.956;9.076;2022-08-21T15:18:39;3.88;;;2.13;;
63714;SDS011;49858;48.956;9.076;2022-08-21T15:21:08;3.95;;;2.42;;
63714;SDS011;49858;48.956;9.076;2022-08-21T15:23:38;3.58;;;2.15;;